DLH577 FACT-FYWH
Flight info
| Callsign | DLH577 |
|---|---|
| Flight time | N/A |
| Altitude | 37000 |
| Route | KODES1A KODES UN186 NEVAR |
| Aircraft | A346/H-SDE2E3FGHIJ3J4J5M1P2RWXYZ/LB1D1 |
Departure
| Time | 2026-05-05 09:52 |
|---|---|
| Airport | Cape Town International Airport (FACT) |
Arrival
| Time | N/A |
|---|---|
| Airport | Hosea Kutako International Airport (FYWH) |
| Time | Latitude | Longitude | Altitude | Speed | Heading |
|---|---|---|---|---|---|
| 2026-05-05 09:39 | -33.96833 | 18.59788 | 171 ft | 0 kts | 254° |
| 2026-05-05 09:42 | -33.96833 | 18.59789 | 171 ft | 1 kts | 254° |
| 2026-05-05 09:42 | -33.96830 | 18.59805 | 171 ft | 2 kts | 254° |
| 2026-05-05 09:43 | -33.96826 | 18.59821 | 172 ft | 1 kts | 255° |
| 2026-05-05 09:43 | -33.96823 | 18.59836 | 172 ft | 1 kts | 263° |
| 2026-05-05 09:43 | -33.96820 | 18.59854 | 172 ft | 2 kts | 248° |
| 2026-05-05 09:43 | -33.96804 | 18.59868 | 171 ft | 2 kts | 184° |
| 2026-05-05 09:44 | -33.96779 | 18.59863 | 171 ft | 3 kts | 165° |
| 2026-05-05 09:44 | -33.96773 | 18.59861 | 171 ft | 0 kts | 165° |
| 2026-05-05 09:46 | -33.96779 | 18.59863 | 171 ft | 2 kts | 165° |
| 2026-05-05 09:46 | -33.96809 | 18.59873 | 172 ft | 6 kts | 165° |
| 2026-05-05 09:47 | -33.96869 | 18.59892 | 171 ft | 11 kts | 165° |
| 2026-05-05 09:47 | -33.96964 | 18.59922 | 169 ft | 16 kts | 165° |
| 2026-05-05 09:47 | -33.97086 | 18.59957 | 169 ft | 18 kts | 172° |
| 2026-05-05 09:47 | -33.97221 | 18.59993 | 168 ft | 21 kts | 165° |
| 2026-05-05 09:48 | -33.97375 | 18.60040 | 165 ft | 24 kts | 165° |
| 2026-05-05 09:48 | -33.97540 | 18.60107 | 165 ft | 26 kts | 155° |
| 2026-05-05 09:48 | -33.97714 | 18.60189 | 161 ft | 28 kts | 159° |
| 2026-05-05 09:48 | -33.97889 | 18.60265 | 159 ft | 24 kts | 161° |
| 2026-05-05 09:49 | -33.98055 | 18.60336 | 159 ft | 25 kts | 160° |
| 2026-05-05 09:49 | -33.98228 | 18.60411 | 159 ft | 26 kts | 160° |
| 2026-05-05 09:49 | -33.98403 | 18.60486 | 159 ft | 25 kts | 160° |
| 2026-05-05 09:49 | -33.98557 | 18.60552 | 159 ft | 24 kts | 160° |
| 2026-05-05 09:50 | -33.98704 | 18.60615 | 159 ft | 11 kts | 160° |
| 2026-05-05 09:50 | -33.98781 | 18.60650 | 159 ft | 11 kts | 151° |
| 2026-05-05 09:50 | -33.98800 | 18.60731 | 160 ft | 11 kts | 74° |
| 2026-05-05 09:50 | -33.98777 | 18.60831 | 162 ft | 11 kts | 74° |
| 2026-05-05 09:51 | -33.98739 | 18.60875 | 162 ft | 6 kts | 346° |
| 2026-05-05 09:51 | -33.98699 | 18.60867 | 162 ft | 7 kts | 351° |
| 2026-05-05 09:51 | -33.98638 | 18.60848 | 162 ft | 11 kts | 345° |
| 2026-05-05 09:51 | -33.98345 | 18.60759 | 162 ft | 88 kts | 345° |
| 2026-05-05 09:52 | -33.97471 | 18.60477 | 170 ft | 166 kts | 346° |
| 2026-05-05 09:52 | -33.96363 | 18.60122 | 1035 ft | 162 kts | 346° |
| 2026-05-05 09:52 | -33.95315 | 18.59783 | 1938 ft | 159 kts | 345° |
| 2026-05-05 09:52 | -33.94236 | 18.59433 | 2479 ft | 168 kts | 345° |
| 2026-05-05 09:53 | -33.93055 | 18.59050 | 2912 ft | 184 kts | 345° |
| 2026-05-05 09:53 | -33.91757 | 18.58591 | 3233 ft | 208 kts | 335° |
| 2026-05-05 09:53 | -33.90682 | 18.57310 | 3577 ft | 232 kts | 298° |
| 2026-05-05 09:53 | -33.89837 | 18.55570 | 4104 ft | 252 kts | 304° |
| 2026-05-05 09:54 | -33.88569 | 18.54035 | 4751 ft | 268 kts | 325° |
| 2026-05-05 09:54 | -33.86993 | 18.52863 | 5693 ft | 272 kts | 330° |
| 2026-05-05 09:54 | -33.85617 | 18.51908 | 6493 ft | 276 kts | 332° |
| 2026-05-05 09:54 | -33.84755 | 18.51425 | 6934 ft | 278 kts | 343° |
| 2026-05-05 09:55 | -33.82853 | 18.51272 | 7831 ft | 280 kts | 12° |
| 2026-05-05 09:55 | -33.81923 | 18.51617 | 8300 ft | 280 kts | 26° |
| 2026-05-05 09:55 | -33.81281 | 18.52038 | 8645 ft | 280 kts | 34° |
| 2026-05-05 09:55 | -33.79702 | 18.53368 | 9538 ft | 284 kts | 36° |
| 2026-05-05 09:56 | -33.78077 | 18.54735 | 10404 ft | 289 kts | 36° |
| 2026-05-05 09:56 | -33.76380 | 18.56145 | 10991 ft | 304 kts | 36° |
| 2026-05-05 09:56 | -33.74583 | 18.57625 | 11458 ft | 322 kts | 36° |
| 2026-05-05 09:56 | -33.72677 | 18.59183 | 11900 ft | 341 kts | 35° |
| 2026-05-05 09:57 | -33.70679 | 18.60809 | 12315 ft | 360 kts | 35° |
| 2026-05-05 09:57 | -33.68554 | 18.62535 | 12731 ft | 378 kts | 35° |
| 2026-05-05 09:57 | -33.66345 | 18.64326 | 13414 ft | 387 kts | 35° |
| 2026-05-05 09:57 | -33.64097 | 18.66145 | 14265 ft | 392 kts | 35° |
| 2026-05-05 09:58 | -33.61826 | 18.67980 | 15099 ft | 396 kts | 36° |
| 2026-05-05 09:58 | -33.59454 | 18.69623 | 15849 ft | 403 kts | 24° |
| 2026-05-05 09:58 | -33.56718 | 18.70455 | 16626 ft | 410 kts | 8° |
| 2026-05-05 09:58 | -33.53864 | 18.70767 | 17444 ft | 414 kts | 5° |
| 2026-05-05 09:59 | -33.50971 | 18.71005 | 18172 ft | 419 kts | 5° |
| 2026-05-05 09:59 | -33.48044 | 18.71278 | 18871 ft | 424 kts | 6° |
| 2026-05-05 09:59 | -33.45090 | 18.71599 | 19579 ft | 428 kts | 6° |
| 2026-05-05 09:59 | -33.42107 | 18.71952 | 20249 ft | 433 kts | 7° |
| 2026-05-05 10:00 | -33.39131 | 18.72323 | 20875 ft | 438 kts | 7° |
| 2026-05-05 10:00 | -33.36086 | 18.72713 | 21480 ft | 443 kts | 7° |
| 2026-05-05 10:00 | -33.32995 | 18.73113 | 22096 ft | 448 kts | 7° |
| 2026-05-05 10:00 | -33.29878 | 18.73518 | 22735 ft | 452 kts | 7° |
| 2026-05-05 10:01 | -33.26733 | 18.73927 | 23346 ft | 456 kts | 7° |
| 2026-05-05 10:01 | -33.23561 | 18.74339 | 23927 ft | 460 kts | 7° |
| 2026-05-05 10:01 | -33.20360 | 18.74756 | 24452 ft | 464 kts | 7° |
| 2026-05-05 10:01 | -33.17165 | 18.75099 | 24964 ft | 468 kts | 4° |
| 2026-05-05 10:02 | -33.13888 | 18.75152 | 25442 ft | 473 kts | 359° |
| 2026-05-05 10:02 | -33.10584 | 18.74864 | 25891 ft | 478 kts | 353° |
| 2026-05-05 10:02 | -33.07275 | 18.74302 | 26333 ft | 482 kts | 351° |
| 2026-05-05 10:02 | -33.03945 | 18.73683 | 26772 ft | 486 kts | 351° |
| 2026-05-05 10:03 | -33.00629 | 18.73055 | 27218 ft | 489 kts | 351° |
| 2026-05-05 10:03 | -32.97257 | 18.72417 | 27666 ft | 492 kts | 351° |
| 2026-05-05 10:03 | -32.93845 | 18.71775 | 28078 ft | 496 kts | 351° |
| 2026-05-05 10:03 | -32.90409 | 18.71132 | 28496 ft | 500 kts | 351° |
| 2026-05-05 10:04 | -32.86958 | 18.70490 | 28913 ft | 503 kts | 351° |
| 2026-05-05 10:04 | -32.83472 | 18.69844 | 29293 ft | 506 kts | 351° |
| 2026-05-05 10:04 | -32.80014 | 18.69203 | 29737 ft | 507 kts | 350° |
| 2026-05-05 10:04 | -32.76517 | 18.68557 | 30283 ft | 505 kts | 350° |
| 2026-05-05 10:05 | -32.73079 | 18.67924 | 30769 ft | 503 kts | 350° |
| 2026-05-05 10:05 | -32.69592 | 18.67281 | 31212 ft | 502 kts | 350° |
| 2026-05-05 10:05 | -32.66170 | 18.66652 | 31643 ft | 501 kts | 350° |
| 2026-05-05 10:05 | -32.62701 | 18.66014 | 32063 ft | 500 kts | 349° |
| 2026-05-05 10:06 | -32.59284 | 18.65385 | 32482 ft | 499 kts | 349° |
| 2026-05-05 10:06 | -32.55887 | 18.64760 | 32884 ft | 498 kts | 349° |
| 2026-05-05 10:06 | -32.52445 | 18.64126 | 33335 ft | 498 kts | 349° |
| 2026-05-05 10:06 | -32.49007 | 18.63494 | 33796 ft | 497 kts | 349° |
| 2026-05-05 10:07 | -32.45619 | 18.62871 | 34247 ft | 496 kts | 349° |
| 2026-05-05 10:07 | -32.42236 | 18.62251 | 34699 ft | 495 kts | 349° |
| 2026-05-05 10:07 | -32.38823 | 18.61626 | 35131 ft | 494 kts | 349° |
| 2026-05-05 10:07 | -32.35448 | 18.61009 | 35488 ft | 494 kts | 349° |
| 2026-05-05 10:08 | -32.32021 | 18.60381 | 35776 ft | 496 kts | 349° |
| 2026-05-05 10:08 | -32.28588 | 18.59754 | 36024 ft | 498 kts | 349° |
| 2026-05-05 10:08 | -32.25186 | 18.59132 | 36245 ft | 500 kts | 349° |
| 2026-05-05 10:08 | -32.21723 | 18.58499 | 36460 ft | 501 kts | 349° |
| 2026-05-05 10:09 | -32.18296 | 18.57873 | 36669 ft | 502 kts | 349° |
| 2026-05-05 10:09 | -32.14830 | 18.57242 | 36854 ft | 504 kts | 349° |
| 2026-05-05 10:09 | -32.11381 | 18.56615 | 36978 ft | 505 kts | 349° |
| 2026-05-05 10:09 | -32.07883 | 18.55978 | 36990 ft | 506 kts | 349° |
| 2026-05-05 10:10 | -32.00930 | 18.54715 | 36996 ft | 506 kts | 349° |
| 2026-05-05 10:10 | -31.94006 | 18.53459 | 36998 ft | 505 kts | 349° |
| 2026-05-05 10:11 | -31.87035 | 18.52197 | 37000 ft | 506 kts | 349° |
| 2026-05-05 10:11 | -31.80109 | 18.50944 | 37000 ft | 505 kts | 349° |
| 2026-05-05 10:12 | -31.73132 | 18.49685 | 37002 ft | 505 kts | 348° |
| 2026-05-05 10:12 | -31.66210 | 18.48436 | 37001 ft | 505 kts | 348° |
| 2026-05-05 10:13 | -31.59255 | 18.47183 | 37001 ft | 505 kts | 348° |
| 2026-05-05 10:13 | -31.52273 | 18.45929 | 37001 ft | 505 kts | 348° |
| 2026-05-05 10:14 | -31.45362 | 18.44688 | 37003 ft | 504 kts | 348° |
| 2026-05-05 10:14 | -31.38414 | 18.43443 | 37002 ft | 505 kts | 348° |
| 2026-05-05 10:15 | -31.31453 | 18.42197 | 37002 ft | 504 kts | 348° |
| 2026-05-05 10:15 | -31.24517 | 18.40957 | 37001 ft | 504 kts | 348° |
| 2026-05-05 10:16 | -31.17612 | 18.39724 | 37000 ft | 504 kts | 348° |
| 2026-05-05 10:16 | -31.10659 | 18.38486 | 36998 ft | 503 kts | 348° |
| 2026-05-05 10:17 | -31.03735 | 18.37254 | 36999 ft | 503 kts | 348° |
| 2026-05-05 10:17 | -30.96825 | 18.36027 | 36998 ft | 504 kts | 348° |
| 2026-05-05 10:18 | -30.89896 | 18.34798 | 37001 ft | 504 kts | 348° |
| 2026-05-05 10:18 | -30.82970 | 18.33571 | 36997 ft | 503 kts | 348° |
| 2026-05-05 10:19 | -30.76047 | 18.32346 | 37000 ft | 501 kts | 348° |
| 2026-05-05 10:19 | -30.69137 | 18.31123 | 36999 ft | 502 kts | 348° |
| 2026-05-05 10:20 | -30.62249 | 18.29906 | 36998 ft | 503 kts | 348° |
| 2026-05-05 10:20 | -30.55344 | 18.28688 | 36998 ft | 503 kts | 348° |
| 2026-05-05 10:21 | -30.48409 | 18.27472 | 36996 ft | 503 kts | 348° |
| 2026-05-05 10:21 | -30.41481 | 18.26259 | 36986 ft | 503 kts | 348° |
| 2026-05-05 10:22 | -30.34562 | 18.25048 | 36977 ft | 502 kts | 348° |
| 2026-05-05 10:22 | -30.27692 | 18.23846 | 36976 ft | 501 kts | 348° |
| 2026-05-05 10:23 | -30.20768 | 18.22636 | 36977 ft | 502 kts | 348° |
| 2026-05-05 10:23 | -30.13893 | 18.21433 | 36977 ft | 501 kts | 348° |
| 2026-05-05 10:24 | -30.06986 | 18.20229 | 36979 ft | 500 kts | 348° |
| 2026-05-05 10:24 | -30.00112 | 18.19032 | 36990 ft | 499 kts | 348° |
| 2026-05-05 10:25 | -29.93237 | 18.17836 | 36983 ft | 499 kts | 348° |
| 2026-05-05 10:25 | -29.86357 | 18.16641 | 36985 ft | 499 kts | 348° |
| 2026-05-05 10:26 | -29.79506 | 18.15454 | 36989 ft | 500 kts | 347° |
| 2026-05-05 10:26 | -29.72597 | 18.14256 | 36990 ft | 501 kts | 348° |
| 2026-05-05 10:27 | -29.65736 | 18.13068 | 36988 ft | 501 kts | 348° |
| 2026-05-05 10:27 | -29.58812 | 18.11874 | 36990 ft | 501 kts | 347° |
| 2026-05-05 10:28 | -29.51942 | 18.10689 | 36991 ft | 500 kts | 347° |
| 2026-05-05 10:28 | -29.45031 | 18.09499 | 36989 ft | 500 kts | 347° |
| 2026-05-05 10:29 | -29.38184 | 18.08323 | 36987 ft | 499 kts | 347° |
| 2026-05-05 10:29 | -29.31290 | 18.07137 | 36984 ft | 500 kts | 347° |
| 2026-05-05 10:30 | -29.24408 | 18.05955 | 36987 ft | 502 kts | 347° |
| 2026-05-05 10:30 | -29.17513 | 18.04775 | 36988 ft | 502 kts | 347° |
| 2026-05-05 10:31 | -29.10624 | 18.03596 | 36991 ft | 501 kts | 347° |
| 2026-05-05 10:31 | -29.03699 | 18.02414 | 37000 ft | 501 kts | 347° |
| 2026-05-05 10:32 | -28.96799 | 18.01236 | 37007 ft | 499 kts | 347° |
| 2026-05-05 10:32 | -28.89961 | 18.00072 | 37001 ft | 499 kts | 347° |
| 2026-05-05 10:33 | -28.83058 | 17.98898 | 36999 ft | 500 kts | 347° |
| 2026-05-05 10:33 | -28.76149 | 17.97722 | 36995 ft | 501 kts | 347° |
| 2026-05-05 10:34 | -28.69281 | 17.96557 | 37000 ft | 500 kts | 347° |
| 2026-05-05 10:34 | -28.62373 | 17.95386 | 37003 ft | 501 kts | 346° |
| 2026-05-05 10:35 | -28.55454 | 17.94211 | 37003 ft | 502 kts | 346° |
| 2026-05-05 10:35 | -28.48571 | 17.93049 | 37006 ft | 502 kts | 346° |
| 2026-05-05 10:36 | -28.41647 | 17.91880 | 37003 ft | 501 kts | 346° |
| 2026-05-05 10:36 | -28.34778 | 17.90723 | 37013 ft | 501 kts | 345° |
| 2026-05-05 10:37 | -28.27877 | 17.89559 | 37011 ft | 500 kts | 345° |
| 2026-05-05 10:37 | -28.20900 | 17.88689 | 37015 ft | 505 kts | 349° |
| 2026-05-05 10:38 | -28.13910 | 17.88149 | 37011 ft | 505 kts | 349° |
| 2026-05-05 10:38 | -28.06883 | 17.87605 | 37021 ft | 505 kts | 349° |
| 2026-05-05 10:39 | -27.99865 | 17.87063 | 37021 ft | 504 kts | 349° |
| 2026-05-05 10:39 | -27.92884 | 17.86522 | 37024 ft | 504 kts | 349° |
| 2026-05-05 10:40 | -27.85889 | 17.85978 | 37025 ft | 505 kts | 349° |
| 2026-05-05 10:40 | -27.78884 | 17.85434 | 37108 ft | 507 kts | 349° |
| 2026-05-05 10:41 | -27.75349 | 17.85160 | 37360 ft | 506 kts | 349° |
| 2026-05-05 10:41 | -27.71818 | 17.84888 | 37710 ft | 503 kts | 349° |
| 2026-05-05 10:41 | -27.68257 | 17.84611 | 37994 ft | 502 kts | 349° |
| 2026-05-05 10:41 | -27.64783 | 17.84337 | 38012 ft | 502 kts | 349° |
| 2026-05-05 10:42 | -27.54356 | 17.83530 | 38033 ft | 501 kts | 348° |
| 2026-05-05 10:43 | -27.47409 | 17.82652 | 38037 ft | 495 kts | 343° |
| 2026-05-05 10:43 | -27.40599 | 17.81519 | 38035 ft | 495 kts | 343° |
| 2026-05-05 10:44 | -27.33791 | 17.80386 | 38041 ft | 494 kts | 343° |
| 2026-05-05 10:44 | -27.26953 | 17.79247 | 38047 ft | 496 kts | 343° |
| 2026-05-05 10:45 | -27.20132 | 17.78115 | 38043 ft | 495 kts | 343° |
| 2026-05-05 10:45 | -27.13349 | 17.76990 | 38043 ft | 495 kts | 343° |
| 2026-05-05 10:46 | -27.06507 | 17.75858 | 38045 ft | 495 kts | 343° |
| 2026-05-05 10:46 | -26.99701 | 17.74730 | 38046 ft | 494 kts | 342° |
| 2026-05-05 10:47 | -26.92908 | 17.73608 | 38035 ft | 493 kts | 342° |
| 2026-05-05 10:47 | -26.86134 | 17.72491 | 38031 ft | 492 kts | 342° |
| 2026-05-05 10:48 | -26.79354 | 17.71371 | 38039 ft | 491 kts | 342° |
| 2026-05-05 10:48 | -26.72605 | 17.70260 | 38041 ft | 490 kts | 342° |
| 2026-05-05 10:49 | -26.65844 | 17.69147 | 38053 ft | 491 kts | 342° |
| 2026-05-05 10:49 | -26.59110 | 17.68040 | 38052 ft | 489 kts | 342° |
| 2026-05-05 10:50 | -26.52388 | 17.66936 | 38060 ft | 489 kts | 342° |
| 2026-05-05 10:50 | -26.45667 | 17.65834 | 38050 ft | 486 kts | 342° |
| 2026-05-05 10:51 | -26.38982 | 17.64737 | 38054 ft | 486 kts | 342° |
| 2026-05-05 10:51 | -26.32262 | 17.63642 | 38051 ft | 487 kts | 342° |
| 2026-05-05 10:52 | -26.25540 | 17.62548 | 38057 ft | 484 kts | 342° |
| 2026-05-05 10:52 | -26.18854 | 17.61458 | 38054 ft | 483 kts | 341° |
| 2026-05-05 10:53 | -26.12216 | 17.60376 | 38057 ft | 482 kts | 341° |
| 2026-05-05 10:53 | -26.05567 | 17.59292 | 38065 ft | 482 kts | 342° |
| 2026-05-05 10:54 | -25.98937 | 17.58214 | 38075 ft | 481 kts | 341° |
| 2026-05-05 10:54 | -25.92355 | 17.57144 | 38084 ft | 478 kts | 341° |
| 2026-05-05 10:55 | -25.85742 | 17.56069 | 38066 ft | 476 kts | 342° |
| 2026-05-05 10:55 | -25.79191 | 17.55007 | 38088 ft | 478 kts | 341° |
| 2026-05-05 10:56 | -25.72604 | 17.53936 | 38075 ft | 476 kts | 342° |
| 2026-05-05 10:56 | -25.66054 | 17.52881 | 38086 ft | 473 kts | 341° |
| 2026-05-05 10:57 | -25.59532 | 17.51826 | 38095 ft | 474 kts | 341° |
| 2026-05-05 10:57 | -25.52973 | 17.50765 | 38098 ft | 475 kts | 342° |
| 2026-05-05 10:58 | -25.46446 | 17.49715 | 38086 ft | 473 kts | 342° |
| 2026-05-05 10:58 | -25.39936 | 17.48664 | 38094 ft | 472 kts | 342° |
| 2026-05-05 10:59 | -25.33359 | 17.47604 | 38104 ft | 471 kts | 342° |
| 2026-05-05 10:59 | -25.26876 | 17.46559 | 38104 ft | 471 kts | 342° |